Aérodrome :
LOGIN :

S'inscrire | Disclaimer

   EN    FR    IT 

 










Légende :    VFR   VFR Marginal   IFR   IFR Intensif   IFR Très Intensif
Visi : 
Plafond : 
>= 8 km
>= 3000ft
5 à 8 km
1000 à 3000 ft
1500m à 5 km
500 à 1000 ft
800 à 1500m
200 à 500 ft
< 800m
< 200 ft
Symboles :   Orages  Brouillard  Fortes neiges  Fortes précipitations  Vent > 20 kt
SIGMETs :   Divers  Orages  Givrage  Turbulence  Onde Orograph.  Cendres Volcan.






- Altitude de l'aérodrome : 300 ft
- Code IATA : MLA


LMML - Malta Luqa

DERNIER METAR :
  • 182045Z 30008KT 9999 BKN017 13/11 Q1023 NOSIG

METARs EXPIRÉS :
  • 182015Z 30008KT 9999 BKN017 13/10 Q1023 NOSIG
  • 181945Z 30008KT 9999 SCT017 13/11 Q1023 NOSIG
  • 181915Z 31008KT 270V330 9999 SCT017 12/10 Q1023 NOSIG
  • 181845Z 30007KT 9999 FEW019 12/10 Q1023 NOSIG
  • 181815Z 30007KT 9999 FEW019 12/09 Q1023 NOSIG

TAF TAF LMML
Valide du 18 à 18h jusqu'au 19 à 18h UTC


181700Z 1818/1918 29014KT 9999 SCT017
PROB30 1818/1909 BKN015
BECMG 1908/1911 31020G30KT



MET'MAP, la Météo Aéronautique d'un coup d'oeil ! - Copyright ORBIFLY Décembre 2007 - Disclaimer

ORBIFLY MET'MAP TEAM :

Programmation & Développement : Alexandra Zaïnal
Sur une idée originale de : Baudouin d'Aumeries
Assistance à la programmation : Marc-Olivier Méhu
Soutien technique & logistique : Manuel Goepfert

Contact : metmap@orbifly.com




SOURCES & CREDITS :

   NOAA